CheckWX is a tool to help pilots better visualize weather data.  It is not intended as a substitute for an official pre-flight weather briefing.

07:38:10 UTC

FVFA METAR
Victoria Falls International Airport
Victoria Falls, Zimbabwe
Current

17 hours ago

FVFA 201500Z 16003KT 110V190 CAVOK 27/06 Q1018 NOSIG
Observed
May-20 @ 15:00 UTC
Wind
  • 160° at 3 KTS
Visibility
10,000+ meters
Flight Rules
VFR
Cloud Levels
  • Clear skies
Temperature
27°C / 81°F
Dewpoint
C / 43°F
Humidity
26%
Altimeter
30.06" Hg
Pressure
1017.92 hPa